AirNav   Everest Fuels
 
 518 users online  

7M6 Paris Municipal Airport
Paris (Subiaco), Arkansas, USA

GOING TO PARIS (SUBIACO)?


FAA INFORMATION EFFECTIVE 11 AUGUST 2022

Location

FAA Identifier: 7M6
Lat/Long: 35-17-56.8150N 093-40-53.8100W
35-17.946917N 093-40.896833W
35.2991153,-93.6816139
(estimated)
Elevation: 430 ft. / 131 m (estimated)
Variation: 05E (1985)
From city: 2 miles E of central business district of the associated city
Time zone: UTC -5 (UTC -6 during Standard Time)
Zip code: 72855

Airport Operations

Airport use: Open to the public
Control tower: no
ARTCC: MEMPHIS CENTER
FSS: JONESBORO FLIGHT SERVICE STATION
NOTAMs facility: JBR (NOTAM-D service available)
Attendance: UNATNDD
Wind indicator: lighted
Segmented circle: no
Lights: ACTVT MIRL RWY 03/21 - CTAF
Beacon: white-green (lighted land airport)
Operates sunset to sunrise.

Airport Communications

CTAF: 122.9

Nearby radio navigation aids

VOR radial/distance  VOR name  Freq  Var
FSMr094/29.4FORT SMITH VORTAC110.4007E

 
NDB name  Hdg/Dist  Freq  Var  ID
RUSSELLVILLE272/28.937903ERUE .-. ..- .

Airport Services

Parking: hangars and tiedowns

Runway Information

Runway 3/21

Dimensions: 2710 x 60 ft. / 826 x 18 m
Surface: asphalt, in good condition
Weight bearing capacity: 
Single wheel: 10.0
Runway edge lights: medium intensity
RUNWAY 3  RUNWAY 21
Latitude: 35-17.773117N35-18.120717N
Longitude: 093-41.067967W093-40.725683W
Elevation: 422.0 ft.403.0 ft.
Traffic pattern: leftleft
Runway heading: 034 magnetic, 039 true214 magnetic, 219 true
Markings: NSTD, in good conditionNSTD, in good condition
Visual slope indicator: 2-light PAPI on left (3.00 degrees glide path)
Touchdown point: yes, no lightsyes, no lights
Obstructions: 15 ft. road, 450 ft. from runway, 16:1 slope to clear30 ft. tree, 350 ft. from runway, 270 ft. left of centerline, 5:1 slope to clear

Airport Ownership and Management from official FAA records

Ownership: Publicly-owned
Owner: CITY OF PARIS
PO BOX 271
PARIS, AR 72855
Phone 479-963-2450
Manager: JOHN MINDEN
P.O. BOX 271
PARIS, AR 72855
Phone 479-963-2450

Airport Operational Statistics

Aircraft based on the field: 5
Single engine airplanes: 4
Helicopters: 1
    
Aircraft operations: avg 63/week *
91% local general aviation
9% transient general aviation
* for 12-month period ending 30 November 2021

Additional Remarks

AGRICULTURE OPS FEB-OCT BLO 500 FT AGL.
FOR CD CTC MEMPHIS ARTCC AT 901-368-8453/8449.

Instrument Procedures

There are no published instrument procedures at 7M6.

Some nearby airports with instrument procedures:

7M5 - Ozark/Franklin County Airport (15 nm NW)
H35 - Clarksville Municipal Airport (16 nm NE)
32A - Danville Municipal Airport (18 nm SE)
KRUE - Russellville Regional Airport (29 nm E)
KFSM - Fort Smith Regional Airport (34 nm W)
 
Loc | Ops | Rwys | IFR | FBO | Links
Com | Nav | Svcs | Stats | Notes
Area around 7M6 (Paris Municipal Airport)
 
Road maps at: MapQuest Bing Google
 
Aerial photo
WARNING: Photo may not be current or correct
Aerial photo of 7M6 (Paris Municipal Airport)
Photo courtesy of the Arkansas Department of Aeronautics
Taken in the Spring of 2007

Do you have a better or more recent aerial photo of Paris Municipal Airport that you would like to share? If so, please send us your photo.

 
Sectional chart

 
Airport distance calculator
Flying to Paris Municipal Airport? Find the distance to fly.

From to 7M6

Sunrise and sunset
Times for 11-Aug-2022
 Local
(UTC-5)
 Zulu
(UTC)
Morning civil twilight06:0511:05
Sunrise06:3211:32
Sunset20:0801:08
Evening civil twilight20:3501:35

Current date and time
Zulu (UTC)  11-Aug-2022 10:04:22
Local (UTC-5)  11-Aug-2022 05:04:22
 
METAR
KRUE 
29nm E 
110953Z AUTO 00000KT 10SM CLR 23/22 A3006 RMK AO2 SLP172 T02330217
KFSM 
34nm W 
110953Z AUTO 09004KT 10SM CLR 24/22 A3007 RMK AO2 SLP174 T02390217
KMWT 
45nm S 
110933Z AUTO 00000KT 7SM FEW002 22/21 A3005 RMK AO2 T02220206
KRKR 
49nm W 
110955Z AUTO 00000KT 10SM CLR 21/20 A3008 RMK AO2
KFYV 
49nm NW 
110953Z AUTO 16003KT 8SM CLR 19/18 A3012 RMK AO2 SLP182 T01890178
TAF
KFSM 
34nm W 
110520Z 1106/1206 07005KT P6SM FEW025 SCT050 FM111600 07005KT P6SM SKC
NOTAMs
Click for the latest NOTAMs
NOTAMs are issued by the DoD/FAA and will open in a separate window not controlled by AirNav.

 

 
 

Would you like to see your business listed on this page?

 If your business provides an interesting product or service to pilots, flight crews, aircraft, or users of the Paris Municipal Airport, you should consider listing it here.  To start the listing process, click on the button below
 
Add a business
 

Other Pages about Paris Municipal Airport

Update a link
 
Copyright © AirNav, LLC. All rights reserved. Privacy Policy  Contact